createdAt,value
2022-09-18T00:00:54.188Z,5.93
2022-09-18T00:10:56.914Z,4.88
2022-09-18T00:21:12.018Z,3.90
2022-09-18T00:31:22.511Z,3.83
2022-09-18T00:41:31.858Z,3.33
2022-09-18T00:51:40.411Z,3.13
2022-09-18T01:01:44.006Z,3.40
2022-09-18T01:12:37.129Z,3.20
2022-09-18T01:23:13.497Z,3.05
2022-09-18T01:33:28.839Z,3.58
2022-09-18T01:43:33.304Z,3.20
2022-09-18T01:53:56.550Z,3.30
2022-09-18T02:04:07.719Z,3.85
2022-09-18T02:14:21.932Z,3.80
2022-09-18T02:24:55.889Z,2.88
2022-09-18T02:34:58.823Z,3.40
2022-09-18T02:45:33.430Z,4.30
2022-09-18T02:55:53.964Z,3.85
2022-09-18T03:05:57.590Z,3.75
2022-09-18T03:16:01.307Z,3.30
2022-09-18T03:26:11.024Z,3.50
2022-09-18T03:36:15.086Z,3.50
2022-09-18T03:46:23.903Z,4.32
2022-09-18T03:56:29.927Z,4.07
2022-09-18T04:06:43.947Z,3.42
2022-09-18T04:17:06.409Z,5.15
2022-09-18T04:27:09.252Z,4.00
2022-09-18T04:37:14.167Z,4.93
2022-09-18T04:47:17.007Z,4.55
2022-09-18T04:57:19.576Z,4.30
2022-09-18T05:07:24.200Z,5.35
2022-09-18T05:17:26.588Z,4.85
2022-09-18T05:27:39.776Z,5.03
2022-09-18T05:37:43.616Z,4.85
2022-09-18T05:47:55.495Z,3.38
2022-09-18T05:58:00.386Z,2.38
2022-09-18T06:08:03.922Z,2.38
2022-09-18T06:18:09.385Z,1.90
2022-09-18T06:28:12.307Z,1.83
2022-09-18T06:38:16.327Z,1.77
2022-09-18T06:48:26.794Z,1.33
2022-09-18T06:58:30.951Z,1.50
2022-09-18T07:08:34.597Z,1.67
2022-09-18T07:18:50.759Z,1.60
2022-09-18T07:28:56.604Z,1.92
2022-09-18T07:39:06.951Z,1.30
2022-09-18T07:49:33.328Z,2.05
2022-09-18T07:59:36.151Z,2.20
2022-09-18T08:09:41.673Z,2.30
2022-09-18T08:19:58.754Z,2.25
2022-09-18T08:30:18.050Z,2.38
2022-09-18T08:40:40.188Z,2.05
2022-09-18T08:51:17.108Z,2.03
2022-09-18T09:01:34.159Z,2.28
2022-09-18T09:12:14.209Z,2.10
2022-09-18T09:22:30.224Z,1.48
2022-09-18T09:32:51.832Z,1.70
2022-09-18T09:43:26.924Z,1.50
2022-09-18T09:53:30.290Z,1.70
2022-09-18T10:03:33.311Z,0.75
2022-09-18T10:14:02.724Z,0.80
2022-09-18T10:24:40.047Z,0.95
2022-09-18T10:34:47.906Z,0.95
2022-09-18T10:45:00.639Z,0.50
2022-09-18T10:55:09.390Z,0.50
2022-09-18T11:05:25.939Z,0.45
2022-09-18T11:15:34.531Z,0.43
2022-09-18T11:25:37.378Z,0.70
2022-09-18T11:35:46.428Z,0.63
2022-09-18T11:45:55.955Z,0.77
2022-09-18T11:56:27.187Z,0.60
2022-09-18T12:06:56.312Z,0.40
2022-09-18T12:17:23.498Z,0.30
2022-09-18T12:27:29.807Z,0.43
2022-09-18T12:37:43.075Z,0.50
2022-09-18T12:47:49.766Z,0.52
2022-09-18T12:58:04.492Z,0.25
2022-09-18T13:08:35.414Z,0.35
2022-09-18T13:18:50.619Z,0.38
2022-09-18T13:28:53.273Z,0.40
2022-09-18T13:38:59.224Z,0.77
2022-09-18T13:49:15.658Z,0.45
2022-09-18T13:59:24.107Z,0.40
2022-09-18T14:10:04.324Z,0.43
2022-09-18T14:20:20.511Z,0.57
2022-09-18T14:30:25.675Z,0.50
2022-09-18T14:40:28.030Z,0.30
2022-09-18T14:50:37.579Z,0.52
2022-09-18T15:00:40.454Z,1.80
2022-09-18T15:10:47.895Z,0.30
2022-09-18T15:20:52.787Z,0.95
2022-09-18T15:31:00.871Z,0.80
2022-09-18T15:41:41.774Z,1.10
2022-09-18T15:51:44.759Z,1.42
2022-09-18T16:01:48.473Z,0.73
2022-09-18T16:11:51.897Z,1.25
2022-09-18T16:21:54.302Z,1.50
2022-09-18T16:31:56.714Z,0.95
2022-09-18T16:41:59.455Z,0.65
2022-09-18T16:52:02.089Z,0.60
2022-09-18T17:02:05.350Z,0.63
2022-09-18T17:12:08.586Z,1.88
2022-09-18T17:22:12.693Z,2.85
2022-09-18T17:43:10.781Z,0.90
2022-09-18T17:53:14.158Z,0.70
2022-09-18T18:03:17.765Z,0.80
2022-09-18T18:13:20.908Z,0.80
2022-09-18T18:23:24.957Z,1.10
2022-09-18T18:33:28.677Z,1.48
2022-09-18T18:43:32.767Z,1.05
2022-09-18T18:53:41.271Z,0.90
2022-09-18T19:03:51.945Z,0.98
2022-09-18T19:14:00.582Z,1.38
2022-09-18T19:24:04.128Z,1.55
2022-09-18T19:34:07.365Z,0.70
2022-09-18T19:44:22.069Z,0.93
2022-09-18T19:54:25.003Z,0.90
2022-09-18T20:04:28.312Z,1.38
2022-09-18T20:14:30.747Z,0.90
2022-09-18T20:24:33.803Z,1.17
2022-09-18T20:34:36.823Z,1.08
2022-09-18T20:44:39.897Z,1.50
2022-09-18T20:54:42.965Z,1.05
2022-09-18T21:04:47.407Z,1.10
2022-09-18T21:14:50.064Z,0.82
2022-09-18T21:24:53.201Z,0.80
2022-09-18T21:34:57.835Z,1.13
2022-09-18T21:45:03.445Z,0.82
2022-09-18T21:55:06.834Z,0.95
2022-09-18T22:05:11.908Z,1.15
2022-09-18T22:15:17.638Z,1.75
2022-09-18T22:25:39.277Z,1.25
2022-09-18T22:35:41.823Z,1.42
2022-09-18T22:45:44.879Z,1.90
2022-09-18T22:55:48.829Z,1.45
2022-09-18T23:05:53.137Z,1.25
2022-09-18T23:15:55.958Z,1.55
2022-09-18T23:26:08.572Z,1.40
2022-09-18T23:36:14.638Z,2.22
2022-09-18T23:46:18.204Z,1.30
2022-09-18T23:56:23.647Z,1.20
